Time;durP1;ratioP1;P1;durP2;ratioP2;P2;SDS_P1;SDS_P2;PMS_P1;PMS_P2;Temp;Humidity;BMP_temperature;BMP_pressure;BME280_temperature;BME280_humidity;BME280_pressure;Samples;Min_cycle;Max_cycle;Signal;HPM_P1;HPM_P2
2021/09/08 00:00:28;;;;;;;4.70;1.77;;;16.30;99.90;;;;;;4974562;28;20453;-82
2021/09/08 00:02:56;;;;;;;2.10;1.47;;;16.20;99.90;;;;;;4974519;28;20441;-82
2021/09/08 00:05:23;;;;;;;5.13;2.03;;;16.20;99.90;;;;;;4974419;28;20479;-82
2021/09/08 00:07:49;;;;;;;2.60;1.10;;;16.10;99.90;;;;;;4974492;28;20454;-82
2021/09/08 00:10:16;;;;;;;3.00;1.37;;;16.20;99.90;;;;;;4974434;28;20462;-82
2021/09/08 00:12:43;;;;;;;4.90;1.83;;;16.10;99.90;;;;;;4974136;28;20445;-82
2021/09/08 00:15:11;;;;;;;4.93;1.70;;;16.00;99.90;;;;;;4974340;28;20492;-82
2021/09/08 00:17:40;;;;;;;1.90;1.70;;;16.00;99.90;;;;;;4974037;28;20521;-82
2021/09/08 00:20:09;;;;;;;2.37;1.80;;;15.90;99.90;;;;;;4974055;28;20441;-82
2021/09/08 00:22:36;;;;;;;6.00;1.90;;;15.90;99.90;;;;;;4974336;28;20555;-82
2021/09/08 00:25:03;;;;;;;2.07;1.33;;;15.90;99.90;;;;;;4974241;28;20480;-82
2021/09/08 00:27:30;;;;;;;3.40;1.30;;;15.80;99.90;;;;;;4973941;28;20972;-82
2021/09/08 00:29:56;;;;;;;5.50;1.60;;;15.80;99.90;;;;;;4974057;28;20437;-82
2021/09/08 00:32:23;;;;;;;3.37;1.67;;;15.80;99.90;;;;;;4974234;28;20460;-81
2021/09/08 00:34:51;;;;;;;3.37;2.50;;;15.80;99.90;;;;;;4973789;28;20496;-82
2021/09/08 00:37:18;;;;;;;1.90;1.13;;;15.80;99.90;;;;;;4974427;28;20488;-82
2021/09/08 00:39:45;;;;;;;3.53;1.40;;;15.90;99.90;;;;;;4974572;28;20493;-82
2021/09/08 00:42:12;;;;;;;3.83;1.67;;;15.90;99.90;;;;;;4974182;28;20476;-82
2021/09/08 00:44:39;;;;;;;6.40;1.30;;;16.00;99.90;;;;;;4974245;28;20835;-86
2021/09/08 00:47:06;;;;;;;1.00;0.90;;;16.00;99.90;;;;;;4977613;28;20437;-86
2021/09/08 00:49:33;;;;;;;3.03;1.70;;;15.90;99.90;;;;;;4977868;28;20457;-86
2021/09/08 00:52:05;;;;;;;2.00;1.50;;;15.90;99.90;;;;;;4977935;28;20456;-86
2021/09/08 00:54:34;;;;;;;2.67;1.30;;;15.90;99.90;;;;;;4978958;28;20484;-87
2021/09/08 00:57:04;;;;;;;2.27;1.50;;;15.80;99.90;;;;;;4979966;28;20484;-86
2021/09/08 00:59:32;;;;;;;1.43;1.17;;;15.70;99.90;;;;;;4978332;28;20450;-87
2021/09/08 01:02:00;;;;;;;4.73;1.43;;;15.70;99.90;;;;;;4978227;28;20449;-87
2021/09/08 01:04:27;;;;;;;1.80;1.37;;;15.70;99.90;;;;;;4977888;28;20484;-86
2021/09/08 01:06:54;;;;;;;4.50;2.10;;;15.60;99.90;;;;;;4978024;28;20444;-86
2021/09/08 01:09:22;;;;;;;2.93;1.27;;;15.50;99.90;;;;;;4978010;28;20460;-86
2021/09/08 01:11:49;;;;;;;2.77;2.57;;;15.50;99.90;;;;;;4977815;28;20461;-87
2021/09/08 01:14:16;;;;;;;3.40;1.60;;;15.50;99.90;;;;;;4977627;28;20473;-86
2021/09/08 01:16:42;;;;;;;2.87;2.00;;;15.40;99.90;;;;;;4977748;28;20473;-86
2021/09/08 01:19:10;;;;;;;1.73;1.63;;;15.40;99.90;;;;;;4977636;28;20438;-86
2021/09/08 01:21:37;;;;;;;7.03;1.70;;;15.30;99.90;;;;;;4977376;28;20457;-86
2021/09/08 01:24:06;;;;;;;2.00;1.30;;;15.30;99.90;;;;;;4977078;28;21000;-86
2021/09/08 01:26:34;;;;;;;1.53;1.43;;;15.30;99.90;;;;;;4977120;28;20448;-84
2021/09/08 01:29:01;;;;;;;2.50;1.30;;;15.30;99.90;;;;;;4976839;28;20434;-83
2021/09/08 01:31:28;;;;;;;1.07;0.97;;;15.30;99.90;;;;;;4976778;28;20445;-83
2021/09/08 01:33:55;;;;;;;4.70;1.33;;;15.20;99.90;;;;;;4976769;28;20492;-84
2021/09/08 01:36:21;;;;;;;1.93;1.17;;;15.20;99.90;;;;;;4976662;28;20422;-83
2021/09/08 01:38:48;;;;;;;2.30;1.40;;;15.20;99.90;;;;;;4976913;28;20467;-84
2021/09/08 01:41:16;;;;;;;2.43;1.20;;;15.20;99.90;;;;;;4976594;28;20941;-84
2021/09/08 01:43:45;;;;;;;4.50;1.77;;;15.20;99.90;;;;;;4976494;28;20472;-84
2021/09/08 01:46:18;;;;;;;2.30;1.20;;;15.10;99.90;;;;;;4976780;28;20512;-84
2021/09/08 01:48:45;;;;;;;1.70;1.60;;;15.10;99.90;;;;;;4976530;28;20427;-84
2021/09/08 01:51:12;;;;;;;4.03;1.83;;;15.10;99.90;;;;;;4976659;28;20465;-84
2021/09/08 01:53:39;;;;;;;6.50;1.80;;;15.00;99.90;;;;;;4976406;28;20462;-84
2021/09/08 01:56:06;;;;;;;1.20;1.10;;;15.00;99.90;;;;;;4975937;28;20460;-84
2021/09/08 01:58:35;;;;;;;1.10;0.80;;;15.00;99.90;;;;;;4976267;28;20484;-83
2021/09/08 02:01:02;;;;;;;0.87;0.87;;;14.90;99.90;;;;;;4977204;28;20461;-84
2021/09/08 02:03:28;;;;;;;2.20;1.93;;;14.90;99.90;;;;;;4976391;28;20481;-84
2021/09/08 02:05:55;;;;;;;3.43;1.00;;;14.90;99.90;;;;;;4976454;28;20458;-83
2021/09/08 02:08:22;;;;;;;2.13;1.50;;;14.80;99.90;;;;;;4976355;28;20449;-83
2021/09/08 02:10:49;;;;;;;3.60;1.70;;;14.80;99.90;;;;;;4976322;28;20453;-83
2021/09/08 02:13:15;;;;;;;1.87;1.13;;;14.80;99.90;;;;;;4975994;28;20442;-83
2021/09/08 02:15:43;;;;;;;1.77;1.03;;;14.80;99.90;;;;;;4975991;28;20438;-84
2021/09/08 02:18:10;;;;;;;1.67;0.90;;;14.80;99.90;;;;;;4976137;28;20483;-84
2021/09/08 02:20:37;;;;;;;1.73;1.37;;;14.80;99.90;;;;;;4975886;28;20437;-83
2021/09/08 02:23:03;;;;;;;1.43;1.30;;;14.80;99.90;;;;;;4976018;28;20445;-84
2021/09/08 02:25:30;;;;;;;5.00;1.43;;;14.70;99.90;;;;;;4975778;28;20933;-83
2021/09/08 02:27:57;;;;;;;1.73;1.53;;;14.70;99.90;;;;;;4976023;28;20456;-83
2021/09/08 02:30:24;;;;;;;4.07;2.20;;;14.70;99.90;;;;;;4975995;28;20789;-83
2021/09/08 02:32:52;;;;;;;7.47;1.77;;;14.60;99.90;;;;;;4975682;28;20430;-84
2021/09/08 02:35:18;;;;;;;2.27;1.53;;;14.60;99.90;;;;;;4975306;28;20488;-83
2021/09/08 02:37:45;;;;;;;1.73;1.40;;;14.60;99.90;;;;;;4975789;28;20513;-84
2021/09/08 02:40:12;;;;;;;3.90;1.60;;;14.50;99.90;;;;;;4975592;28;20445;-83
2021/09/08 02:42:39;;;;;;;1.70;1.60;;;14.50;99.90;;;;;;4975702;28;20460;-84
2021/09/08 02:45:07;;;;;;;4.33;1.33;;;14.50;99.90;;;;;;4976634;28;20480;-91
2021/09/08 02:47:33;;;;;;;2.83;1.50;;;14.50;99.90;;;;;;4977936;28;20449;-91
2021/09/08 02:50:02;;;;;;;1.00;1.00;;;14.50;99.90;;;;;;4977178;28;20460;-91
2021/09/08 02:52:28;;;;;;;2.00;1.40;;;14.50;99.90;;;;;;4978631;28;20870;-91
2021/09/08 02:54:55;;;;;;;1.00;0.90;;;14.50;99.90;;;;;;4979362;28;20473;-91
2021/09/08 02:57:22;;;;;;;1.13;1.00;;;14.40;99.90;;;;;;4976453;28;20492;-91
2021/09/08 02:59:48;;;;;;;2.60;2.00;;;14.40;99.90;;;;;;4976666;28;20462;-92
2021/09/08 03:02:15;;;;;;;2.10;1.23;;;14.40;99.90;;;;;;4976641;28;20457;-91
2021/09/08 03:04:42;;;;;;;1.60;1.30;;;14.40;99.90;;;;;;4976490;28;20496;-91
2021/09/08 03:07:10;;;;;;;2.13;1.00;;;14.40;99.90;;;;;;4976530;28;20449;-91
2021/09/08 03:09:36;;;;;;;3.73;1.40;;;14.30;99.90;;;;;;4975832;28;20800;-91
2021/09/08 03:12:04;;;;;;;1.67;1.00;;;14.30;99.90;;;;;;4976460;28;20453;-91
2021/09/08 03:14:31;;;;;;;2.30;1.10;;;14.30;99.90;;;;;;4976276;28;20477;-91
2021/09/08 03:16:57;;;;;;;3.10;1.07;;;14.30;99.90;;;;;;4976192;28;20445;-91
2021/09/08 03:19:24;;;;;;;3.33;1.90;;;14.20;99.90;;;;;;4975993;28;20437;-91
2021/09/08 03:21:51;;;;;;;1.37;1.23;;;14.20;99.90;;;;;;4975971;28;20434;-91
2021/09/08 03:24:19;;;;;;;4.77;1.40;;;14.20;99.90;;;;;;4975992;28;20965;-91
2021/09/08 03:26:45;;;;;;;2.07;1.67;;;14.20;99.90;;;;;;4976116;28;20451;-91
2021/09/08 03:29:12;;;;;;;2.40;1.47;;;14.20;99.90;;;;;;4975859;28;20933;-91
2021/09/08 03:31:39;;;;;;;1.83;1.40;;;14.10;99.90;;;;;;4975175;28;20446;-86
2021/09/08 03:34:05;;;;;;;1.97;1.13;;;14.10;99.90;;;;;;4974560;28;20846;-86
2021/09/08 03:36:32;;;;;;;5.03;1.20;;;14.00;99.90;;;;;;4975016;28;20453;-86
2021/09/08 03:38:59;;;;;;;2.00;1.37;;;14.00;99.90;;;;;;4974720;28;20996;-86
2021/09/08 03:41:27;;;;;;;3.50;2.00;;;14.00;99.90;;;;;;4974966;28;20457;-86
2021/09/08 03:43:54;;;;;;;1.93;0.93;;;14.00;99.90;;;;;;4974615;28;20458;-85
2021/09/08 03:46:20;;;;;;;2.20;1.13;;;14.00;99.90;;;;;;4974791;28;20449;-86
2021/09/08 03:48:47;;;;;;;5.00;1.90;;;14.00;99.90;;;;;;4974712;28;20810;-85
2021/09/08 03:51:15;;;;;;;3.10;1.73;;;13.90;99.90;;;;;;4974790;28;20454;-86
2021/09/08 03:53:42;;;;;;;2.23;1.27;;;13.90;99.90;;;;;;4974634;28;20576;-82
2021/09/08 03:56:09;;;;;;;2.60;1.10;;;13.90;99.90;;;;;;4974571;28;20445;-82
2021/09/08 03:58:37;;;;;;;2.97;1.33;;;13.90;99.90;;;;;;4974195;28;21004;-82
2021/09/08 04:01:04;;;;;;;2.93;1.57;;;13.90;99.90;;;;;;4974294;28;20434;-82
2021/09/08 04:03:31;;;;;;;1.53;1.13;;;14.00;99.90;;;;;;4974471;28;20472;-81
2021/09/08 04:05:57;;;;;;;3.37;2.03;;;14.00;99.90;;;;;;4974280;28;20839;-81
2021/09/08 04:08:24;;;;;;;1.40;1.30;;;14.00;99.90;;;;;;4974342;28;20449;-82
2021/09/08 04:10:51;;;;;;;1.40;1.20;;;14.00;99.90;;;;;;4974145;28;20968;-82
2021/09/08 04:13:18;;;;;;;2.70;1.40;;;14.00;99.90;;;;;;4974118;28;20429;-82
2021/09/08 04:15:46;;;;;;;2.33;1.57;;;14.00;99.90;;;;;;4974217;28;20568;-82
2021/09/08 04:18:13;;;;;;;2.77;1.80;;;13.90;99.90;;;;;;4974290;28;20477;-82
2021/09/08 04:20:39;;;;;;;2.60;1.40;;;13.90;99.90;;;;;;4977136;28;20843;-82
2021/09/08 04:23:06;;;;;;;1.57;1.00;;;13.80;99.90;;;;;;4978185;28;20511;-82
2021/09/08 04:25:33;;;;;;;5.73;1.33;;;13.80;99.90;;;;;;4977919;28;20456;-82
2021/09/08 04:27:59;;;;;;;2.97;1.70;;;13.70;99.90;;;;;;4977932;28;20445;-82
2021/09/08 04:30:26;;;;;;;5.83;1.83;;;13.70;99.90;;;;;;4978925;28;20449;-82
2021/09/08 04:32:54;;;;;;;1.63;1.50;;;13.70;99.90;;;;;;4978120;28;20445;-82
2021/09/08 04:35:21;;;;;;;2.20;1.23;;;13.70;99.90;;;;;;4977486;28;20493;-82
2021/09/08 04:37:48;;;;;;;2.10;1.33;;;13.60;99.90;;;;;;4977918;28;20500;-82
2021/09/08 04:40:15;;;;;;;3.70;2.00;;;13.60;99.90;;;;;;4977970;28;20449;-82
2021/09/08 04:42:41;;;;;;;1.43;0.90;;;13.60;99.90;;;;;;4977956;28;20433;-81
2021/09/08 04:45:09;;;;;;;4.33;1.20;;;13.60;99.90;;;;;;4977795;28;20481;-82
2021/09/08 04:47:37;;;;;;;3.10;1.30;;;13.60;99.90;;;;;;4977804;28;20445;-82
2021/09/08 04:50:06;;;;;;;8.27;3.00;;;13.60;99.90;;;;;;4977785;28;20492;-82
2021/09/08 04:52:35;;;;;;;2.83;1.27;;;13.60;99.90;;;;;;4977504;28;20444;-82
2021/09/08 04:55:02;;;;;;;1.93;1.70;;;13.60;99.90;;;;;;4977539;28;20646;-82
2021/09/08 04:57:29;;;;;;;2.80;1.70;;;13.50;99.90;;;;;;4977378;28;20453;-83
2021/09/08 04:59:56;;;;;;;2.70;1.93;;;13.60;99.90;;;;;;4977686;28;20460;-83
2021/09/08 05:02:22;;;;;;;2.30;2.03;;;13.60;99.90;;;;;;4977331;28;20925;-83
2021/09/08 05:04:49;;;;;;;3.60;1.30;;;13.50;99.90;;;;;;4977444;28;20482;-84
2021/09/08 05:07:17;;;;;;;3.93;1.60;;;13.50;99.90;;;;;;4977254;28;20441;-83
2021/09/08 05:09:44;;;;;;;2.97;1.27;;;13.60;99.90;;;;;;4977454;28;20441;-83
2021/09/08 05:12:11;;;;;;;4.57;2.20;;;13.60;99.90;;;;;;4977413;28;20464;-83
2021/09/08 05:14:38;;;;;;;3.87;1.83;;;13.60;99.90;;;;;;4977323;28;20473;-83
2021/09/08 05:17:07;;;;;;;3.93;2.00;;;13.60;99.90;;;;;;4977077;28;20437;-84
2021/09/08 05:19:34;;;;;;;7.70;1.87;;;13.70;99.90;;;;;;4976916;28;21063;-84
2021/09/08 05:22:01;;;;;;;5.03;2.67;;;13.70;99.90;;;;;;4976878;28;20972;-84
2021/09/08 05:24:29;;;;;;;4.83;2.50;;;13.80;99.90;;;;;;4976782;28;21012;-83
2021/09/08 05:26:56;;;;;;;6.37;2.87;;;13.80;99.90;;;;;;4977104;28;20464;-83
2021/09/08 05:29:23;;;;;;;5.27;2.57;;;13.90;99.90;;;;;;4977153;28;20452;-83
2021/09/08 05:31:49;;;;;;;1.97;1.83;;;13.90;99.90;;;;;;4975870;28;20967;-83
2021/09/08 05:34:16;;;;;;;5.03;2.13;;;14.00;99.90;;;;;;4976706;28;20497;-82
2021/09/08 05:36:43;;;;;;;3.27;1.33;;;14.10;99.90;;;;;;4977019;28;20418;-83
2021/09/08 05:39:10;;;;;;;4.03;1.40;;;14.20;99.90;;;;;;4976615;28;20488;-83
2021/09/08 05:41:38;;;;;;;2.20;1.30;;;14.20;99.90;;;;;;4976859;28;20480;-82
2021/09/08 05:44:05;;;;;;;2.60;2.20;;;14.30;99.90;;;;;;4976509;28;20465;-82
2021/09/08 05:46:32;;;;;;;4.07;1.83;;;14.40;99.90;;;;;;4976743;28;20437;-82
2021/09/08 05:48:58;;;;;;;3.50;1.40;;;14.50;99.90;;;;;;4976702;28;20453;-82
2021/09/08 05:51:25;;;;;;;1.90;0.77;;;14.60;99.90;;;;;;4976664;28;20449;-82
2021/09/08 05:53:52;;;;;;;4.00;2.30;;;14.60;99.90;;;;;;4976522;28;20482;-82
2021/09/08 05:56:19;;;;;;;4.67;1.90;;;14.70;99.90;;;;;;4976551;28;20456;-82
2021/09/08 05:58:47;;;;;;;6.80;2.53;;;14.70;99.90;;;;;;4976243;28;20477;-81
2021/09/08 06:01:14;;;;;;;4.10;2.47;;;14.70;99.90;;;;;;4976519;28;20445;-82
2021/09/08 06:03:41;;;;;;;3.03;1.43;;;14.80;99.90;;;;;;4981768;28;20474;-88
2021/09/08 06:06:07;;;;;;;3.40;1.37;;;14.70;99.90;;;;;;4981053;28;20465;-90
2021/09/08 06:08:34;;;;;;;2.70;2.50;;;14.80;99.90;;;;;;4978929;28;20476;-90
2021/09/08 06:11:01;;;;;;;1.63;1.00;;;14.80;99.90;;;;;;4977557;28;20457;-90
2021/09/08 06:13:27;;;;;;;1.17;0.90;;;14.80;99.90;;;;;;4977350;28;20883;-90
2021/09/08 06:15:56;;;;;;;3.77;1.37;;;14.80;99.90;;;;;;4977383;28;20822;-91
2021/09/08 06:18:22;;;;;;;2.53;1.80;;;14.90;99.90;;;;;;4976751;28;20493;-89
2021/09/08 06:20:49;;;;;;;1.80;1.43;;;15.00;99.90;;;;;;4976707;28;20442;-90
2021/09/08 06:23:16;;;;;;;4.00;1.07;;;15.10;99.90;;;;;;4977091;28;20479;-91
2021/09/08 06:25:42;;;;;;;9.73;1.80;;;15.30;99.90;;;;;;4975938;28;20456;-83
2021/09/08 06:28:09;;;;;;;3.63;1.87;;;15.40;99.90;;;;;;4975772;28;20908;-83
2021/09/08 06:30:36;;;;;;;0.93;0.93;;;15.60;99.90;;;;;;4975723;28;20445;-84
2021/09/08 06:33:04;;;;;;;1.50;1.40;;;15.80;99.90;;;;;;4975643;28;20425;-83
2021/09/08 06:35:31;;;;;;;3.23;1.83;;;15.90;99.90;;;;;;4975550;28;20493;-84
2021/09/08 06:37:57;;;;;;;2.60;1.30;;;16.00;99.90;;;;;;4975817;28;20902;-84
2021/09/08 06:40:24;;;;;;;2.67;1.60;;;16.20;99.90;;;;;;4975538;28;20796;-84
2021/09/08 06:42:51;;;;;;;2.13;1.47;;;16.30;99.90;;;;;;4975424;28;20933;-83
2021/09/08 06:45:18;;;;;;;2.30;0.97;;;16.30;99.90;;;;;;4975671;28;20453;-84
2021/09/08 06:47:44;;;;;;;2.17;1.33;;;16.50;99.90;;;;;;4975701;28;20493;-84
2021/09/08 06:50:13;;;;;;;5.40;2.37;;;16.70;99.90;;;;;;4975636;28;20438;-84
2021/09/08 06:52:39;;;;;;;3.87;1.90;;;16.90;99.90;;;;;;4975446;28;20809;-83
2021/09/08 06:55:07;;;;;;;5.40;2.03;;;17.10;99.90;;;;;;4975506;28;20458;-84
2021/09/08 06:57:34;;;;;;;1.40;1.17;;;17.20;99.90;;;;;;4975195;28;20914;-84
2021/09/08 07:00:00;;;;;;;1.87;1.70;;;17.30;99.90;;;;;;4975421;28;20509;-84
2021/09/08 07:02:27;;;;;;;2.23;1.20;;;17.40;99.90;;;;;;4975427;28;20442;-84
2021/09/08 07:04:54;;;;;;;2.20;1.80;;;17.50;99.90;;;;;;4975283;28;20480;-84
2021/09/08 07:07:22;;;;;;;1.67;1.50;;;17.50;99.90;;;;;;4975412;28;20948;-86
2021/09/08 07:09:48;;;;;;;2.40;1.90;;;17.60;99.90;;;;;;4975957;28;20441;-86
2021/09/08 07:12:15;;;;;;;2.63;2.07;;;17.80;99.90;;;;;;4975243;28;20783;-87
2021/09/08 07:14:42;;;;;;;1.73;1.37;;;18.00;99.90;;;;;;4975198;28;20464;-87
2021/09/08 07:17:09;;;;;;;2.23;1.67;;;18.10;99.90;;;;;;4975588;28;20445;-87
2021/09/08 07:19:36;;;;;;;5.07;1.97;;;18.20;99.90;;;;;;4975355;28;20488;-85
2021/09/08 07:22:03;;;;;;;6.07;1.80;;;18.30;99.90;;;;;;4975451;28;20441;-87
2021/09/08 07:24:31;;;;;;;7.73;2.30;;;18.40;99.90;;;;;;4975765;28;20488;-85
2021/09/08 07:26:58;;;;;;;1.37;1.10;;;18.50;99.90;;;;;;4974991;28;20429;-83
2021/09/08 07:29:25;;;;;;;3.33;1.87;;;18.60;99.90;;;;;;4975003;28;20445;-81
2021/09/08 07:31:52;;;;;;;2.70;1.50;;;18.80;99.90;;;;;;4974966;28;20529;-80
2021/09/08 07:34:19;;;;;;;2.43;1.70;;;18.90;99.90;;;;;;4974616;28;20488;-81
2021/09/08 07:36:46;;;;;;;2.30;1.10;;;19.10;99.90;;;;;;4974858;28;20453;-82
2021/09/08 07:39:13;;;;;;;2.20;1.40;;;19.30;99.90;;;;;;4974728;28;20485;-82
2021/09/08 07:41:41;;;;;;;2.77;1.40;;;19.40;99.90;;;;;;4974746;28;20449;-82
2021/09/08 07:44:08;;;;;;;1.87;1.07;;;19.40;99.90;;;;;;4974717;28;20472;-83
2021/09/08 07:46:35;;;;;;;3.73;1.30;;;19.40;99.90;;;;;;4974731;28;20445;-81
2021/09/08 07:49:02;;;;;;;1.80;1.20;;;19.40;99.90;;;;;;4974328;28;20995;-83
2021/09/08 07:51:28;;;;;;;2.10;1.47;;;19.70;99.90;;;;;;4974625;28;20446;-83
2021/09/08 07:53:56;;;;;;;5.87;2.07;;;19.70;99.90;;;;;;4974103;28;20477;-84
2021/09/08 07:56:23;;;;;;;3.10;1.93;;;19.70;99.90;;;;;;4974663;28;20465;-83
2021/09/08 07:58:51;;;;;;;2.60;1.40;;;19.70;99.90;;;;;;4974550;28;20496;-83
2021/09/08 08:01:17;;;;;;;4.00;1.47;;;19.70;99.90;;;;;;4974539;28;20473;-83
2021/09/08 08:03:45;;;;;;;2.97;1.67;;;19.80;99.90;;;;;;4974461;28;20476;-83
2021/09/08 08:06:11;;;;;;;7.30;1.40;;;19.90;99.90;;;;;;4974807;28;20456;-92
2021/09/08 08:08:38;;;;;;;2.70;1.20;;;20.00;99.90;;;;;;4975240;28;20933;-92
2021/09/08 08:11:06;;;;;;;4.50;2.27;;;20.10;99.90;;;;;;4975310;28;20441;-91
2021/09/08 08:13:33;;;;;;;5.60;1.90;;;20.20;99.90;;;;;;4975435;28;20465;-91
2021/09/08 08:16:01;;;;;;;2.30;1.20;;;20.40;99.90;;;;;;4975368;28;20441;-91
2021/09/08 08:18:28;;;;;;;2.30;1.23;;;20.40;99.90;;;;;;4975083;28;20829;-93
2021/09/08 08:20:55;;;;;;;2.83;1.50;;;20.50;99.90;;;;;;4975413;28;20449;-92
2021/09/08 08:23:22;;;;;;;3.77;1.70;;;20.60;99.90;;;;;;4975349;28;20472;-92
2021/09/08 08:25:49;;;;;;;2.17;1.30;;;20.60;99.90;;;;;;4975297;28;20444;-92
2021/09/08 08:28:15;;;;;;;3.23;1.30;;;20.60;99.90;;;;;;4975416;28;20465;-92
2021/09/08 08:30:42;;;;;;;2.60;1.40;;;20.80;99.90;;;;;;4975300;28;20449;-93
2021/09/08 08:33:10;;;;;;;2.03;1.83;;;20.90;99.90;;;;;;4975440;28;20445;-94
2021/09/08 08:35:38;;;;;;;2.20;1.20;;;21.00;99.90;;;;;;4975057;28;20852;-93
2021/09/08 08:38:05;;;;;;;3.77;1.30;;;21.10;99.90;;;;;;4976359;28;20446;-94
2021/09/08 08:40:32;;;;;;;1.47;0.80;;;21.10;99.90;;;;;;4975068;28;20618;-92
2021/09/08 08:43:00;;;;;;;3.27;1.70;;;21.30;99.90;;;;;;4975358;28;20500;-91
2021/09/08 08:45:28;;;;;;;3.23;1.57;;;21.40;99.90;;;;;;4975107;28;20980;-94
2021/09/08 08:47:55;;;;;;;1.13;1.03;;;21.40;99.90;;;;;;4975058;28;20456;-95
2021/09/08 08:50:26;;;;;;;2.80;1.40;;;21.60;99.90;;;;;;4975354;28;20941;-89
2021/09/08 08:52:55;;;;;;;2.63;1.60;;;21.60;99.90;;;;;;4974990;28;20456;-89
2021/09/08 08:55:22;;;;;;;2.20;1.47;;;21.60;99.90;;;;;;4974950;28;20560;-89
2021/09/08 08:57:49;;;;;;;2.33;1.53;;;21.70;99.90;;;;;;4975155;28;20451;-89
2021/09/08 09:00:17;;;;;;;1.33;1.23;;;21.80;99.90;;;;;;4974735;28;20488;-86
2021/09/08 09:02:48;;;;;;;4.20;1.60;;;22.00;99.90;;;;;;4974752;28;20452;-89
2021/09/08 09:05:31;;;;;;;1.20;0.90;;;22.20;98.50;;;;;;4974286;28;20480;-88
2021/09/08 09:07:58;;;;;;;1.97;1.33;;;22.50;96.00;;;;;;4977744;28;20456;-87
2021/09/08 09:10:24;;;;;;;2.63;0.80;;;22.70;96.10;;;;;;4978064;28;20448;-88
2021/09/08 09:12:52;;;;;;;2.10;1.27;;;22.70;98.20;;;;;;4978391;28;20463;-90
2021/09/08 09:15:33;;;;;;;3.30;1.30;;;22.90;97.20;;;;;;4978210;28;21004;-91
2021/09/08 09:18:00;;;;;;;1.60;1.07;;;23.10;96.80;;;;;;4978006;28;20465;-89
2021/09/08 09:20:30;;;;;;;1.67;1.17;;;23.10;97.30;;;;;;4978022;28;20835;-86
2021/09/08 09:22:59;;;;;;;2.47;1.80;;;23.10;97.30;;;;;;4977949;28;20232;-90
2021/09/08 09:25:28;;;;;;;2.30;1.37;;;23.30;97.80;;;;;;4977343;28;20224;-88
2021/09/08 09:27:59;;;;;;;3.27;1.87;;;23.20;97.30;;;;;;4977878;28;20205;-89
2021/09/08 09:30:28;;;;;;;1.40;1.02;;;23.30;97.20;;;;;;4978352;28;20202;-90
2021/09/08 09:32:57;;;;;;;1.10;0.87;;;23.60;97.60;;;;;;4977814;28;20244;-86
2021/09/08 09:35:25;;;;;;;2.42;1.70;;;23.80;96.60;;;;;;4977318;28;20705;-89
2021/09/08 09:37:55;;;;;;;1.87;1.47;;;24.00;96.40;;;;;;4978125;28;20638;-89
2021/09/08 09:40:24;;;;;;;2.27;1.87;;;24.10;95.90;;;;;;4977512;28;20221;-88
2021/09/08 09:42:53;;;;;;;1.52;1.35;;;24.30;95.40;;;;;;4978334;28;20573;-94
2021/09/08 09:45:21;;;;;;;1.45;1.35;;;24.40;95.60;;;;;;4977884;28;20570;-89
2021/09/08 09:47:49;;;;;;;6.05;1.83;;;24.40;94.60;;;;;;4977325;28;20198;-89
2021/09/08 09:50:19;;;;;;;1.38;1.27;;;24.60;95.10;;;;;;4977580;28;20208;-89
2021/09/08 09:52:47;;;;;;;1.50;1.15;;;24.80;94.70;;;;;;4977259;28;20201;-88
2021/09/08 09:55:16;;;;;;;2.28;1.40;;;25.00;94.20;;;;;;4976887;28;20257;-89
2021/09/08 09:57:43;;;;;;;2.58;1.80;;;25.00;94.00;;;;;;4977949;28;20232;-96
2021/09/08 10:00:11;;;;;;;4.68;1.95;;;24.90;95.20;;;;;;4979853;28;20226;-95
2021/09/08 10:02:39;;;;;;;1.95;1.30;;;24.70;94.60;;;;;;4977082;28;20200;-93
2021/09/08 10:05:06;;;;;;;2.05;1.08;;;24.50;94.70;;;;;;4978423;28;20233;-95
2021/09/08 10:07:35;;;;;;;2.75;1.80;;;24.30;94.60;;;;;;4979360;28;20209;-96
2021/09/08 10:10:06;;;;;;;2.70;1.42;;;24.30;95.00;;;;;;4979594;28;20236;-93
2021/09/08 10:12:39;;;;;;;2.70;1.52;;;24.20;95.60;;;;;;4979132;28;20189;-95
2021/09/08 10:15:07;;;;;;;2.03;1.83;;;24.10;95.90;;;;;;4979175;28;20261;-92
2021/09/08 10:17:39;;;;;;;3.10;1.42;;;24.20;96.10;;;;;;4980498;28;20201;-95
2021/09/08 10:20:08;;;;;;;4.22;2.15;;;24.20;96.00;;;;;;4978105;28;20685;-95
2021/09/08 10:22:39;;;;;;;2.28;1.55;;;24.30;96.20;;;;;;4979551;28;20182;-96
2021/09/08 10:25:11;;;;;;;3.15;1.35;;;24.30;96.50;;;;;;4977504;28;20232;-93
2021/09/08 10:27:41;;;;;;;1.75;1.27;;;24.40;96.70;;;;;;4978184;28;20189;-92
2021/09/08 10:30:09;;;;;;;3.00;1.90;;;24.50;95.70;;;;;;4978282;28;20186;-93
2021/09/08 10:32:37;;;;;;;2.05;1.40;;;24.70;95.40;;;;;;4978643;28;20231;-87
2021/09/08 10:35:12;;;;;;;3.95;2.33;;;24.60;95.50;;;;;;4978599;28;20257;-96
2021/09/08 10:37:44;;;;;;;5.47;2.10;;;24.60;95.70;;;;;;4978617;28;20201;-96
2021/09/08 10:40:14;;;;;;;2.45;1.58;;;24.60;95.40;;;;;;4979215;28;20225;-96
2021/09/08 10:42:51;;;;;;;2.13;1.27;;;24.60;95.70;;;;;;4977617;28;20217;-91
2021/09/08 10:45:23;;;;;;;2.58;1.60;;;24.70;95.60;;;;;;4977247;28;20225;-91
2021/09/08 10:47:51;;;;;;;1.65;1.55;;;24.90;95.60;;;;;;4976719;28;20645;-93
2021/09/08 10:50:40;;;;;;;2.70;1.60;;;25.20;95.50;;;;;;4977371;28;20563;-95
2021/09/08 10:53:29;;;;;;;2.88;1.38;;;25.80;93.60;;;;;;4977102;28;20208;-95
2021/09/08 10:55:56;;;;;;;1.85;1.48;;;26.50;92.20;;;;;;4978029;28;20186;-94
2021/09/08 10:58:25;;;;;;;2.05;1.50;;;27.10;92.10;;;;;;4976428;28;20186;-91
2021/09/08 11:00:51;;;;;;;3.05;1.83;;;27.70;91.70;;;;;;4976621;28;20217;-93
2021/09/08 11:03:27;;;;;;;2.13;1.50;;;27.80;90.90;;;;;;4976741;28;20623;-88
2021/09/08 11:06:03;;;;;;;1.38;1.23;;;27.50;90.10;;;;;;4977190;28;20212;-95
2021/09/08 11:08:31;;;;;;;3.10;1.77;;;27.10;89.20;;;;;;4977421;28;20198;-96
2021/09/08 11:11:09;;;;;;;2.45;1.63;;;26.70;90.80;;;;;;4977128;28;20197;-95
2021/09/08 11:13:37;;;;;;;4.00;1.83;;;26.20;90.80;;;;;;4977118;28;20225;-93
2021/09/08 11:16:19;;;;;;;2.63;1.60;;;25.90;91.10;;;;;;4981964;28;20212;-93
2021/09/08 11:18:46;;;;;;;2.45;1.63;;;25.60;90.90;;;;;;4978263;28;20209;-91
2021/09/08 11:21:14;;;;;;;3.83;2.28;;;25.40;91.60;;;;;;4976194;28;20231;-92
2021/09/08 11:23:40;;;;;;;1.52;1.42;;;25.30;91.70;;;;;;4975972;28;20245;-93
2021/09/08 11:26:09;;;;;;;1.80;1.48;;;25.10;92.50;;;;;;4976633;28;20209;-94
2021/09/08 11:28:38;;;;;;;3.58;2.13;;;25.10;92.90;;;;;;4975393;28;20194;-93
2021/09/08 11:31:17;;;;;;;2.53;1.67;;;25.10;92.80;;;;;;4975558;28;20185;-88
2021/09/08 11:33:44;;;;;;;3.50;1.17;;;25.10;92.30;;;;;;4975449;28;20221;-91
2021/09/08 11:36:12;;;;;;;3.38;1.40;;;25.10;92.60;;;;;;4975695;28;20181;-93
2021/09/08 11:38:46;;;;;;;2.55;1.45;;;25.10;92.80;;;;;;4976081;28;20536;-95
2021/09/08 11:41:13;;;;;;;1.23;1.10;;;25.00;94.10;;;;;;4976253;28;20260;-94
2021/09/08 11:43:44;;;;;;;1.85;1.58;;;24.90;92.80;;;;;;4976400;28;20236;-94
2021/09/08 11:46:13;;;;;;;2.70;1.58;;;24.90;92.40;;;;;;4976426;28;20606;-94
2021/09/08 11:48:40;;;;;;;4.03;2.13;;;24.80;91.60;;;;;;4976691;28;20536;-93
2021/09/08 11:51:08;;;;;;;2.05;1.60;;;24.70;93.50;;;;;;4975776;28;20212;-92
2021/09/08 11:53:36;;;;;;;1.55;1.38;;;24.70;93.50;;;;;;4976261;28;20225;-93
2021/09/08 11:56:07;;;;;;;2.15;1.88;;;24.80;93.80;;;;;;4976412;28;20657;-94
2021/09/08 11:58:35;;;;;;;2.63;1.48;;;24.90;93.90;;;;;;4975641;28;20181;-94
2021/09/08 12:01:07;;;;;;;3.03;1.88;;;24.90;93.60;;;;;;4975643;28;20208;-90
2021/09/08 12:03:38;;;;;;;1.40;1.30;;;24.90;94.00;;;;;;4977812;28;20225;-90
2021/09/08 12:06:09;;;;;;;2.10;1.90;;;24.90;92.60;;;;;;4978529;28;20190;-92
2021/09/08 12:08:37;;;;;;;3.55;1.52;;;24.90;92.40;;;;;;4978220;28;20177;-93
2021/09/08 12:11:04;;;;;;;2.00;1.70;;;24.90;92.20;;;;;;4978459;28;20720;-90
2021/09/08 12:13:33;;;;;;;2.42;1.65;;;24.90;91.70;;;;;;4980807;28;20221;-95
2021/09/08 12:16:00;;;;;;;2.83;1.58;;;24.80;91.80;;;;;;4982315;28;20260;-94
2021/09/08 12:18:30;;;;;;;1.38;1.27;;;24.60;92.60;;;;;;4982011;28;20214;-95
2021/09/08 12:21:19;;;;;;;1.58;1.20;;;24.60;92.00;;;;;;4978827;28;20217;-96
2021/09/08 12:23:46;;;;;;;2.53;1.45;;;24.40;91.40;;;;;;4977813;28;20221;-95
2021/09/08 12:26:13;;;;;;;1.20;0.98;;;24.30;91.20;;;;;;4976293;28;20182;-94
2021/09/08 12:29:06;;;;;;;1.65;1.52;;;24.30;91.90;;;;;;4978516;28;20193;-93
2021/09/08 12:31:45;;;;;;;1.92;1.05;;;24.30;91.80;;;;;;4978676;28;20201;-91
2021/09/08 12:34:13;;;;;;;3.40;1.38;;;24.30;90.90;;;;;;4977280;28;20225;-95
2021/09/08 12:36:40;;;;;;;2.83;1.70;;;24.30;91.20;;;;;;4979820;28;20549;-95
2021/09/08 12:39:12;;;;;;;1.38;1.23;;;24.20;90.60;;;;;;4979463;28;20198;-92
2021/09/08 12:41:53;;;;;;;2.42;1.58;;;24.20;91.30;;;;;;4982999;28;20228;-89
2021/09/08 12:44:27;;;;;;;2.05;1.33;;;24.10;91.70;;;;;;4985571;28;20225;-94
2021/09/08 12:46:54;;;;;;;2.20;0.90;;;24.00;92.10;;;;;;4987254;28;20208;-92
2021/09/08 12:49:25;;;;;;;2.70;1.20;;;23.90;90.90;;;;;;4986950;28;20182;-93
2021/09/08 12:51:53;;;;;;;3.50;1.17;;;23.70;90.30;;;;;;4986589;28;20638;-93